Tiempo atmosférico en la estación meteorológica de Moguer, El Arenosillo, Huelva (41 m.)



Fecha
DESCASC
Temp. máxima en grados centígrados (hora)
DESCASC
Temp. mínima en grados centígrados (hora)
DESCASC
Temp. media en grados centígrados
DESCASC
Racha de viento máxima en m/sg (hora)
DESCASC
Velocidad máxima media en intervalos de 10 minutos(hora)
DESCASC
Precipitaciones diarias en mm
DESCASC
Precipitaciones de 00:00 a 06:00 en mm
DESCASC
Precipitaciones de 06:00 a 12:00 en mm
DESCASC
Precipitaciones de 12:00 a 18:00 en mm
DESCASC
Precipitaciones de 18:00 a 24:00 en mm
DESCASC
08-12-2019 15.5 (16:20) 6 (08:20) 10.8 4.44 (06:40) 3.06 (09:20) 0 0 0 0 0
07-12-2019 17.9 (13:00) 6.8 (03:00) 12.3 6.11 (11:10) 4.17 (11:00) 0 0 0 0 0
06-12-2019 20.4 (15:50) 9 (23:59) 14.7 8.89 (11:00) 4.72 (07:40) 0 0 0 0 0
05-12-2019 17.8 (15:30) 5.4 (00:00) 11.6 9.72 (14:30) 5 (13:10) 0 0 0 0 0
04-12-2019 13.5 (15:50) 6.4 (00:00) 10 6.11 (13:30) 3.61 (12:30) 0 0 0 0 0
03-12-2019 19.4 (15:20) 9.1 (00:00) 14.3 7.22 (03:10) 4.72 (06:00) 0 0 0 0 0
02-12-2019 15.7 (15:20) 9.7 (00:00) 12.7 8.89 (11:50) 5.28 (13:10) 0 0 0 0 0
01-12-2019 15.5 (16:10) 7.6 (00:00) 11.5 9.44 (19:20) 5 (18:10) 3.3 0 0 3.3 0
30-11-2019 17.4 (12:50) 8.5 (00:00) 12.9 6.39 (22:10) 3.89 (22:10) 0.7 0 0 0 0.7
29-11-2019 -- (--) -- (--) -- -- (--) 3.61 (10:50) -- -- -- 0 0
28-11-2019 16.4 (12:50) 9.3 (00:00) 12.8 3.89 (08:50) 1.94 (08:50) -- -- -- -- --
27-11-2019 16.1 (13:20) 12.2 (00:00) 14.2 6.67 (00:50) 2.78 (01:30) -- -- -- -- --
26-11-2019 17.1 (16:20) 13.8 (00:00) 15.5 8.06 (22:40) 6.11 (22:10) -- -- -- -- --
25-11-2019 16.1 (17:10) 13.2 (00:00) 14.7 7.5 (16:00) 5 (16:00) -- -- -- -- --
24-11-2019 15.7 (14:30) 6.8 (00:00) 11.3 4.44 (06:00) 3.06 (11:50) -- -- -- -- --
23-11-2019 17.8 (15:20) 9.4 (00:00) 13.6 12.5 (04:50) 5.83 (04:50) 0 0 0 0 0
22-11-2019 16.7 (16:20) 11.9 (00:00) 14.3 17.22 (17:40) 11.94 (17:20) -- -- -- -- --
21-11-2019 17.1 (15:30) 10.8 (00:00) 14 6.39 (12:10) 4.17 (11:10) -- -- -- -- --
20-11-2019 16 (15:20) 4.3 (00:00) 10.2 15.56 (12:30) 3.33 (08:30) 10.5 0 6.2 4.3 0
19-11-2019 14.6 (11:50) 5.2 (00:00) 9.9 4.44 (00:30) 3.06 (09:40) 0 0 0 0 0
18-11-2019 17.8 (16:20) 7.7 (00:00) 12.7 14.17 (01:20) 8.06 (01:30) 0.2 0.2 0 0 0
17-11-2019 16.4 (15:10) 5.6 (00:00) 11 9.17 (17:10) 6.11 (17:10) 0.7 0 0.7 0 0
16-11-2019 15.8 (15:50) 3.4 (00:00) 9.6 7.5 (15:40) 4.17 (14:10) 0 0 0 0 0
15-11-2019 15.5 (15:00) 7.8 (00:00) 11.7 11.39 (12:40) 6.39 (12:40) 0 0 0 0 0
14-11-2019 16 (12:00) 10.6 (00:00) 13.3 16.39 (19:30) 6.67 (10:40) 0.1 0 0 0.1 0
13-11-2019 18.1 (14:30) 12.9 (00:00) 15.5 8.89 (04:30) 4.72 (04:20) 0 0 0 0 0
12-11-2019 20.2 (15:50) 8.7 (00:00) 14.5 9.72 (15:40) 5.28 (15:40) 0 0 0 0 0
11-11-2019 19.5 (17:10) 12.2 (03:00) 15.8 8.89 (00:30) 4.17 (22:40) 1.8 0.9 0.9 0 0

Gráficas

Temp. máximas Temp. mínimas Temp. medias Precipitaciones Rachas de viento máximas Velocidades máximas media en intervalos de 10 minutos

Datos horarios

Fecha y hora oficial Temperatura (ºC) Velocidad del viento (km/h) Dirección del viento Racha (km/h) Dirección de racha Precipitación (mm) Presión (hPa) Tendencia (hPa) Humedad (%)
2019-12-10 23:00:00 9.7 5 Norte 9 Norte 0 -- -- 95
2019-12-10 22:00:00 10.2 3 Noroeste 8 Noroeste 0 -- -- 95
2019-12-10 21:00:00 10.6 4 Noroeste 6 Noroeste 0 -- -- 91
2019-12-10 20:00:00 11.1 4 Noroeste 6 Oeste 0 -- -- 87
2019-12-10 19:00:00 13 3 Noroeste 12 Noroeste 0 -- -- 78
2019-12-10 18:00:00 14.6 8 Noroeste 15 Noroeste 0 -- -- 64
2019-12-10 17:00:00 15.3 7 Noroeste 19 Noroeste 0 -- -- 67
2019-12-10 16:00:00 16.4 8 Oeste 21 Noroeste 0 -- -- 56
2019-12-10 15:00:00 15.6 12 Oeste 22 Oeste 0 -- -- 65
2019-12-10 14:00:00 15.7 12 Oeste 20 Oeste 0 -- -- 68
2019-12-10 13:00:00 16.5 4 Sudoeste 14 Norte 0 -- -- 56
2019-12-10 12:00:00 16.3 6 Nordeste 15 Nordeste 0 -- -- 59
2019-12-10 11:00:00 14.2 6 Norte 10 Noroeste 0 -- -- 63
2019-12-10 10:00:00 10.1 7 Norte 13 Norte 0 -- -- 75
2019-12-10 09:00:00 5.9 8 Norte 13 Norte 0 -- -- 89
2019-12-10 08:00:00 7.6 10 Nordeste 14 Nordeste 0 -- -- 87
2019-12-10 07:00:00 7.4 10 Nordeste 13 Nordeste 0 -- -- 90
2019-12-10 06:00:00 8.1 8 Nordeste 15 Nordeste 0 -- -- 89
2019-12-10 05:00:00 8.3 10 Nordeste 13 Nordeste 0 -- -- 93
2019-12-10 04:00:00 8.8 9 Nordeste 13 Nordeste 0 -- -- 99
2019-12-10 03:00:00 9.1 8 Nordeste 12 Nordeste 0 -- -- 98
2019-12-10 02:00:00 8.8 6 Nordeste 10 Nordeste 0 -- -- 99
2019-12-10 01:00:00 8.3 6 Nordeste 8 Nordeste 0 -- -- 99
2019-12-10 00:00:00 8.8 3 Nordeste 6 Este 0 -- -- 98
2019-12-09 23:00:00 9.6 3 Nordeste 6 Este 0 -- -- 98
2019-12-09 22:00:00 9.9 5 Este 7 Este 0 -- -- 97
2019-12-09 21:00:00 10 2 Este 7 Noroeste 0 -- -- 94
2019-12-09 20:00:00 11.6 4 Norte 7 Norte 0 -- -- 96
2019-12-09 19:00:00 13.3 3 Noroeste 4 Noroeste 0 -- -- 90
2019-12-09 18:00:00 16.1 0 Calma 12 Noroeste 0 -- -- 82
2019-12-09 17:00:00 17.2 3 Oeste 13 Oeste 0 -- -- 79
2019-12-09 16:00:00 17.3 4 Sudoeste 12 Sudoeste 0 -- -- 83
2019-12-09 15:00:00 16.6 7 Oeste 11 Oeste 0 -- -- 87
2019-12-09 14:00:00 15.8 5 Oeste 12 Oeste 0 -- -- 90
2019-12-09 13:00:00 15.3 6 Oeste 12 Oeste 0 -- -- 94
2019-12-09 12:00:00 16.1 4 Sudoeste 7 Sudoeste 0 -- -- 90
2019-12-09 11:00:00 15.3 0 Calma 6 Norte 0 -- -- 92
2019-12-09 10:00:00 15.3 2 Noroeste 10 Norte 0 -- -- 93
2019-12-09 09:00:00 14.4 5 Norte 14 Noroeste 0 -- -- 96
2019-12-09 08:00:00 14.1 5 Norte 10 Norte 0 -- -- 97
2019-12-09 07:00:00 14.2 6 Noroeste 14 Norte 0 -- -- 96
2019-12-09 06:00:00 13.6 9 Norte 16 Noroeste 0 -- -- 97
2019-12-09 05:00:00 12.6 6 Norte 13 Norte 0 -- -- 97
2019-12-09 04:00:00 12.9 5 Norte 13 Norte 0 -- -- 97
2019-12-09 03:00:00 11 6 Noroeste 10 Norte 0 -- -- 98
2019-12-09 02:00:00 10.7 6 Noroeste 10 Noroeste 0 -- -- 98
2019-12-09 01:00:00 10.9 4 Noroeste 8 Noroeste 0 -- -- 96
2019-12-09 00:00:00 11.4 5 Noroeste 9 Noroeste 0 -- -- 95
2019-12-08 23:00:00 12.8 4 Noroeste 11 Noroeste 0 -- -- 92
2019-12-08 22:00:00 13.4 5 Noroeste 13 Noroeste 0 -- -- 93
2019-12-08 21:00:00 13.6 5 Noroeste 10 Noroeste 0 -- -- 92
2019-12-08 20:00:00 13.4 4 Noroeste 10 Oeste 0 -- -- 87
2019-12-08 19:00:00 13.9 5 Oeste 11 Oeste 0 -- -- 86
2019-12-08 18:00:00 14.3 5 Oeste 13 Oeste 0 -- -- 86
2019-12-08 17:00:00 15.2 5 Oeste 10 Oeste 0 -- -- 74
2019-12-08 16:00:00 15.2 5 Sudoeste 13 Oeste 0 -- -- 77
2019-12-08 15:00:00 15 5 Sudoeste 13 Sudoeste 0 -- -- 77
2019-12-08 14:00:00 14.4 5 Sudoeste 13 Sudoeste 0 -- -- 77
2019-12-08 13:00:00 14.3 6 Sudoeste 10 Sudoeste 0 -- -- 77
2019-12-08 12:00:00 15 2 Sudoeste 12 Este 0 -- -- 70
2019-12-08 11:00:00 12.9 7 Este 15 Nordeste 0 -- -- 79
2019-12-08 10:00:00 9.6 9 Nordeste 16 Nordeste 0 -- -- 88
2019-12-08 09:00:00 6.8 9 Nordeste 15 Nordeste 0 -- -- 96
2019-12-08 08:00:00 6.6 7 Norte 14 Nordeste 0 -- -- 96
2019-12-08 07:00:00 7.6 9 Nordeste 16 Nordeste 0 -- -- 95
2019-12-08 06:00:00 7.6 9 Nordeste 15 Nordeste 0 -- -- 95
2019-12-08 05:00:00 6.9 6 Nordeste 13 Norte 0 -- -- 95
2019-12-08 04:00:00 7.4 2 Nordeste 12 Nordeste 0 -- -- 92
2019-12-08 03:00:00 8.6 9 Nordeste 15 Nordeste 0 -- -- 90
2019-12-08 02:00:00 9.6 10 Norte 14 Norte 0 -- -- 89
2019-12-08 01:00:00 8.8 4 Norte 8 Noroeste 0 -- -- 92
2019-12-08 00:00:00 8.6 0 Calma 7 Noroeste 0 -- -- 90
2019-12-07 23:00:00 10 4 Noroeste 12 Noroeste 0 -- -- 86
2019-12-07 22:00:00 10.3 4 Noroeste 8 Noroeste 0 -- -- 88
2019-12-07 21:00:00 10.6 6 Noroeste 10 Noroeste 0 -- -- 93
2019-12-07 20:00:00 10.1 4 Noroeste 6 Noroeste 0 -- -- 88
2019-12-07 19:00:00 11.9 3 Noroeste 6 Noroeste 0 -- -- 83
2019-12-07 18:00:00 14.7 2 Noroeste 9 Oeste 0 -- -- 76
2019-12-07 17:00:00 15.6 6 Oeste 12 Oeste 0 -- -- 73
2019-12-07 16:00:00 15.3 8 Oeste 15 Oeste 0 -- -- 73
2019-12-07 15:00:00 16 6 Oeste 12 Oeste 0 -- -- 68
2019-12-07 14:00:00 16.1 4 Sudoeste 16 Sudoeste 0 -- -- 70
2019-12-07 13:00:00 17.9 3 Este 19 Este 0 -- -- 57
2019-12-07 12:00:00 16.3 10 Nordeste 22 Nordeste 0 -- -- 64
2019-12-07 11:00:00 14.7 15 Nordeste 22 Nordeste 0 -- -- 66
2019-12-07 10:00:00 12.8 10 Nordeste 17 Este 0 -- -- 74
2019-12-07 09:00:00 9.5 13 Nordeste 18 Nordeste 0 -- -- 82
2019-12-07 08:00:00 9.4 12 Nordeste 17 Nordeste 0 -- -- 83
2019-12-07 07:00:00 9.4 12 Nordeste 18 Nordeste 0 -- -- 82
2019-12-07 06:00:00 9.4 11 Nordeste 15 Nordeste 0 -- -- 83
2019-12-07 05:00:00 9.5 10 Nordeste 15 Nordeste 0 -- -- 83
2019-12-07 04:00:00 9 9 Nordeste 13 Norte 0 -- -- 85
2019-12-07 03:00:00 7.8 8 Norte 13 Nordeste 0 -- -- 91
2019-12-07 02:00:00 7.5 3 Norte 6 Nordeste 0 -- -- 90
2019-12-07 01:00:00 8.5 3 Este 8 Este 0 -- -- 87
2019-12-07 00:00:00 9 3 Nordeste 8 Este 0 -- -- 83
2019-12-06 23:00:00 10.6 3 Este 12 Nordeste 0 -- -- 77
2019-12-06 22:00:00 12.3 7 Nordeste 16 Nordeste 0 -- -- 70
2019-12-06 21:00:00 13.7 10 Nordeste 14 Nordeste 0 -- -- 63
2019-12-06 20:00:00 14.3 8 Nordeste 12 Nordeste 0 -- -- 61
2019-12-06 19:00:00 14.6 6 Nordeste 9 Nordeste 0 -- -- 60
2019-12-06 18:00:00 17.8 4 Nordeste 13 Nordeste 0 -- -- 50
2019-12-06 17:00:00 20.1 5 Nordeste 16 Este 0 -- -- 45
2019-12-06 16:00:00 20.2 10 Nordeste 21 Nordeste 0 -- -- 44
2019-12-06 15:00:00 20.1 8 Nordeste 22 Nordeste 0 -- -- 45
2019-12-06 14:00:00 19.5 12 Nordeste 23 Este 0 -- -- 46
2019-12-06 13:00:00 18.2 13 Este 26 Nordeste 0 -- -- 49
2019-12-06 12:00:00 16.6 12 Este 30 Este 0 -- -- 55
2019-12-06 11:00:00 15.6 15 Este 32 Este 0 -- -- 57
2019-12-06 10:00:00 13.1 14 Nordeste 25 Nordeste 0 -- -- 66
2019-12-06 09:00:00 10.4 15 Nordeste 24 Nordeste 0 -- -- 74
2019-12-06 08:00:00 10.1 14 Nordeste 25 Nordeste 0 -- -- 77
2019-12-06 07:00:00 9.8 16 Nordeste 23 Nordeste 0 -- -- 77
2019-12-06 06:00:00 9.9 13 Nordeste 20 Nordeste 0 -- -- 79
2019-12-06 05:00:00 10.2 13 Nordeste 24 Nordeste 0 -- -- 77
2019-12-06 04:00:00 10.4 13 Nordeste 21 Nordeste 0 -- -- 78
2019-12-06 03:00:00 10.3 13 Nordeste 21 Nordeste 0 -- -- 79
2019-12-06 02:00:00 10 12 Nordeste 17 Nordeste 0 -- -- 81
2019-12-06 01:00:00 11 10 Nordeste 20 Nordeste 0 -- -- 78
2019-12-06 00:00:00 11 11 Nordeste 21 Nordeste 0 -- -- 75
2019-12-05 23:00:00 11.5 13 Nordeste 24 Nordeste 0 -- -- 71
2019-12-05 22:00:00 11.7 14 Nordeste 22 Nordeste 0 -- -- 71
2019-12-05 21:00:00 11.6 13 Nordeste 19 Nordeste 0 -- -- 72
2019-12-05 20:00:00 12.6 10 Nordeste 14 Nordeste 0 -- -- 70
2019-12-05 19:00:00 13.6 6 Nordeste 15 Nordeste 0 -- -- 64
2019-12-05 18:00:00 16 10 Nordeste 27 Nordeste 0 -- -- 54
2019-12-05 17:00:00 17.4 15 Este 28 Este 0 -- -- 50
2019-12-05 16:00:00 17.6 13 Nordeste 31 Este 0 -- -- 52
2019-12-05 15:00:00 17.4 17 Nordeste 35 Este 0 -- -- 53
2019-12-05 14:00:00 17 14 Nordeste 29 Este 0 -- -- 57
2019-12-05 13:00:00 16.1 17 Nordeste 32 Este 0 -- -- 61
2019-12-05 12:00:00 14.7 15 Nordeste 30 Nordeste 0 -- -- 69
2019-12-05 11:00:00 12.7 15 Nordeste 28 Nordeste 0 -- -- 77
2019-12-05 10:00:00 9.8 14 Nordeste 23 Norte 0 -- -- 85
2019-12-05 09:00:00 7.5 12 Nordeste 22 Nordeste 0 -- -- 91
2019-12-05 08:00:00 6.3 3 Nordeste 16 Nordeste 0 -- -- 93
2019-12-05 07:00:00 5.8 11 Nordeste 19 Nordeste 0 -- -- 93
2019-12-05 06:00:00 6.3 12 Nordeste 18 Nordeste 0 -- -- 92
2019-12-05 05:00:00 6.4 10 Nordeste 17 Nordeste 0 -- -- 90
2019-12-05 04:00:00 6.7 10 Nordeste 16 Nordeste 0 -- -- 88
2019-12-05 03:00:00 6.7 10 Nordeste 17 Nordeste 0 -- -- 89
2019-12-05 02:00:00 6.5 9 Nordeste 15 Norte 0 -- -- 90
2019-12-05 01:00:00 7.4 6 Nordeste 13 Norte 0 -- -- 89
2019-12-05 00:00:00 7.2 5 Norte 10 Norte 0 -- -- 87
2019-12-04 23:00:00 7.3 4 Norte 8 Noroeste 0 -- -- 84
2019-12-04 22:00:00 7.5 5 Noroeste 7 Norte 0 -- -- 84
2019-12-04 21:00:00 9.3 4 Noroeste 6 Noroeste 0 -- -- 81
2019-12-04 20:00:00 10.6 3 Noroeste 5 Oeste 0 -- -- 80
2019-12-04 19:00:00 10.3 0 Calma 5 Noroeste 0 -- -- 80
2019-12-04 18:00:00 11.6 0 Calma 8 Oeste 0 -- -- 72
2019-12-04 17:00:00 13 4 Noroeste 15 Oeste 0 -- -- 64
2019-12-04 16:00:00 13.3 8 Oeste 21 Sudoeste 0 -- -- 59
2019-12-04 15:00:00 13 9 Oeste 22 Oeste 0 -- -- 66
2019-12-04 14:00:00 11.9 11 Oeste 22 Oeste 0 -- -- 73
2019-12-04 13:00:00 11.5 10 Oeste 21 Oeste 0 -- -- 75
2019-12-04 12:00:00 11.3 8 Oeste 21 Oeste 0 -- -- 74
2019-12-04 11:00:00 11.2 5 Noroeste 16 Norte 0 -- -- 72
2019-12-04 10:00:00 9.6 6 Norte 14 Norte 0 -- -- 80
2019-12-04 09:00:00 6.7 3 Noroeste 11 Norte 0 -- -- 92
2019-12-04 08:00:00 7.6 5 Noroeste 20 Norte 0 -- -- 89
2019-12-04 07:00:00 8.2 9 Norte 21 Norte 0 -- -- 89
2019-12-04 06:00:00 8.2 9 Noroeste 19 Oeste 0 -- -- 89
2019-12-04 05:00:00 8.8 7 Nordeste 14 Norte 0 -- -- 88
2019-12-04 04:00:00 9.8 8 Norte 13 Norte 0 -- -- 85
2019-12-04 03:00:00 9.3 6 Norte 13 Norte 0 -- -- 87
2019-12-04 02:00:00 9.9 9 Norte 15 Norte 0 -- -- 84
2019-12-04 01:00:00 10.7 10 Norte 17 Norte 0 -- -- 81
2019-12-04 00:00:00 11.5 12 Norte 17 Norte 0 -- -- 79
2019-12-03 23:00:00 10 5 Norte 10 Nordeste 0 -- -- 89
2019-12-03 22:00:00 10.2 2 Noroeste 10 Nordeste 0 -- -- 86
2019-12-03 21:00:00 11.9 3 Nordeste 11 Oeste 0 -- -- 83
2019-12-03 20:00:00 14.2 5 Oeste 13 Noroeste 0 -- -- 79
2019-12-03 19:00:00 14.2 5 Noroeste 13 Noroeste 0 -- -- 77
2019-12-03 18:00:00 15.4 5 Noroeste 19 Oeste 0 -- -- 74
2019-12-03 17:00:00 16 10 Oeste 19 Oeste 0 -- -- 74
2019-12-03 16:00:00 16.5 10 Oeste 18 Oeste 0 -- -- 68
2019-12-03 15:00:00 18.6 11 Norte 19 Norte 0 -- -- 48
2019-12-03 14:00:00 18.1 9 Nordeste 19 Este 0 -- -- 51
2019-12-03 13:00:00 17.2 13 Nordeste 24 Nordeste 0 -- -- 53
2019-12-03 12:00:00 16.4 13 Nordeste 23 Nordeste 0 -- -- 56
2019-12-03 11:00:00 15.3 10 Nordeste 24 Nordeste 0 -- -- 61
2019-12-03 10:00:00 13.1 11 Nordeste 18 Nordeste 0 -- -- 70
2019-12-03 09:00:00 9.9 12 Nordeste 24 Nordeste 0 -- -- 81
2019-12-03 08:00:00 9.6 15 Nordeste 23 Nordeste 0 -- -- 82
2019-12-03 07:00:00 10.6 14 Nordeste 23 Nordeste 0 -- -- 78
2019-12-03 06:00:00 10.8 17 Nordeste 24 Nordeste 0 -- -- 79
2019-12-03 05:00:00 10.7 14 Nordeste 22 Nordeste 0 -- -- 79
2019-12-03 04:00:00 10.8 13 Nordeste 26 Nordeste 0 -- -- 79
2019-12-03 03:00:00 10.8 14 Nordeste 25 Nordeste 0 -- -- 80
2019-12-03 02:00:00 11.3 15 Nordeste 24 Nordeste 0 -- -- 78
2019-12-03 01:00:00 11.7 14 Nordeste 23 Nordeste 0 -- -- 77
2019-12-03 00:00:00 12.6 13 Nordeste 20 Nordeste 0 -- -- 77
2019-12-02 23:00:00 11.7 12 Nordeste 19 Nordeste 0 -- -- 80
2019-12-02 22:00:00 11.7 8 Nordeste 17 Nordeste 0 -- -- 86
2019-12-02 21:00:00 11.4 11 Nordeste 15 Nordeste 0 -- -- 85
2019-12-02 20:00:00 11.8 7 Nordeste 12 Norte 0 -- -- 82
2019-12-02 19:00:00 13.5 6 Nordeste 17 Este 0 -- -- 78
2019-12-02 18:00:00 14.2 9 Este 29 Este 0 -- -- 72
2019-12-02 17:00:00 15.3 13 Este 32 Este 0 -- -- 68
2019-12-02 16:00:00 15.4 15 Este 32 Este 0 -- -- 70
2019-12-02 15:00:00 15.3 10 Nordeste 28 Nordeste 0 -- -- 72
2019-12-02 14:00:00 14.9 10 Este 31 Este 0 -- -- 73
2019-12-02 13:00:00 14.3 15 Este 31 Este 0 -- -- 74
2019-12-02 12:00:00 13.5 17 Nordeste 32 Nordeste 0 -- -- 82
2019-12-02 11:00:00 11.5 12 Nordeste 25 Nordeste 0 -- -- 89
2019-12-02 10:00:00 11 13 Nordeste 28 Nordeste 0 -- -- 92
2019-12-02 09:00:00 10.5 13 Nordeste 20 Norte 0 -- -- 95
2019-12-02 08:00:00 10.7 9 Nordeste 22 Nordeste 0 -- -- 97
2019-12-02 07:00:00 10 11 Nordeste 20 Norte 0 -- -- 98
2019-12-02 06:00:00 9.8 6 Norte 15 Nordeste 0 -- -- 98
2019-12-02 05:00:00 10.4 7 Norte 12 Nordeste 0 -- -- 98
2019-12-02 04:00:00 10.4 5 Norte 12 Noroeste 0 -- -- 97
2019-12-02 03:00:00 11 3 Noroeste 4 Norte 0 -- -- 95
2019-12-02 02:00:00 11.3 2 Norte 12 Noroeste 0 -- -- 91
2019-12-02 01:00:00 12 6 Noroeste 19 Noroeste 0 -- -- 92
2019-12-02 00:00:00 12.9 12 Noroeste 21 Noroeste 0 -- -- 87
2019-12-01 23:00:00 13.6 10 Noroeste 20 Noroeste 0 -- -- 80
2019-12-01 22:00:00 13.7 9 Noroeste 23 Noroeste 0 -- -- 77
2019-12-01 21:00:00 14 6 Oeste 20 Oeste 0 -- -- 82
2019-12-01 20:00:00 14 9 Noroeste 34 Noroeste 0 -- -- 81
2019-12-01 19:00:00 14.3 15 Oeste 30 Oeste 0 -- -- 77
2019-12-01 18:00:00 14.3 15 Oeste 32 Oeste 0 -- -- 84
2019-12-01 17:00:00 14.7 13 Sudoeste 21 Sudoeste 0 -- -- 89
2019-12-01 16:00:00 14.9 6 Sudoeste 16 Oeste 0 -- -- 86
2019-12-01 15:00:00 13.9 10 Oeste 20 Oeste 0.4 -- -- 90
2019-12-01 14:00:00 13.1 11 Oeste 27 Oeste 2.9 -- -- 94
2019-12-01 13:00:00 14.9 13 Oeste 23 Oeste 0 -- -- 85
2019-12-01 12:00:00 14.4 5 Oeste 21 Oeste 0 -- -- 87
2019-12-01 11:00:00 14.6 7 Oeste 19 Oeste 0 -- -- 90
2019-12-01 10:00:00 13.7 5 Sudoeste 12 Oeste 0 -- -- 93
2019-12-01 09:00:00 9.8 0 Calma 7 Oeste 0 -- -- 99
2019-12-01 08:00:00 8.2 0 Calma 6 Noroeste 0 -- -- 98
2019-12-01 07:00:00 10.3 3 Noroeste 9 Noroeste 0 -- -- 99
2019-12-01 06:00:00 10.6 4 Norte 7 Norte 0 -- -- 99
2019-12-01 05:00:00 10.7 4 Noroeste 7 Noroeste 0 -- -- 98
2019-12-01 04:00:00 11.8 3 Norte 8 Noroeste 0 -- -- 97
2019-12-01 03:00:00 13.1 4 Noroeste 10 Noroeste 0 -- -- 96
2019-12-01 02:00:00 13.6 5 Noroeste 12 Noroeste 0 -- -- 97
2019-12-01 01:00:00 14.3 6 Noroeste 13 Noroeste 0 -- -- 98
2019-12-01 00:00:00 14.2 4 Oeste 17 Oeste 0 -- -- 98
2019-11-30 23:00:00 14.9 9 Noroeste 23 Oeste 0.7 -- -- 98
2019-11-30 22:00:00 15.6 12 Oeste 21 Sudoeste 0 -- -- 94
2019-11-30 21:00:00 15.4 11 Sudoeste 19 Sudoeste 0 -- -- 91
2019-11-30 20:00:00 15.6 6 Sudoeste 13 Sudoeste 0 -- -- 93
2019-11-30 19:00:00 15.3 4 Sur 18 Sudoeste 0 -- -- 91
2019-11-30 18:00:00 15.2 7 Oeste 15 Oeste 0 -- -- 89
2019-11-30 17:00:00 15.1 6 Oeste 22 Oeste 0 -- -- 91
2019-11-30 16:00:00 15.9 5 Sudoeste 11 Sudoeste 0 -- -- 81
2019-11-30 15:00:00 17 6 Sudoeste 15 Oeste 0 -- -- 75
2019-11-30 14:00:00 16.9 6 Oeste 12 Oeste 0 -- -- 77
2019-11-30 13:00:00 17.4 5 Sudoeste 10 Sudoeste 0 -- -- 74
2019-11-30 12:00:00 16.1 4 Sudoeste 8 Sudoeste 0 -- -- 81
2019-11-30 11:00:00 15.5 3 Sudoeste 8 Sudoeste 0 -- -- 81
2019-11-30 10:00:00 14 0 Calma 9 Norte 0 -- -- 92
2019-11-30 09:00:00 10.2 6 Norte 12 Norte 0 -- -- 96
2019-11-30 08:00:00 9.8 9 Norte 14 Norte 0 -- -- 97
2019-11-30 07:00:00 9.5 0 Calma 9 Nordeste 0 -- -- 95
2019-11-30 06:00:00 11.1 6 Nordeste 10 Nordeste 0 -- -- 94
2019-11-30 05:00:00 11.1 9 Nordeste 12 Nordeste 0 -- -- 95
2019-11-30 04:00:00 11.1 8 Nordeste 10 Nordeste 0 -- -- 95
2019-11-30 03:00:00 11.6 9 Nordeste 14 Norte 0 -- -- 93
2019-11-30 02:00:00 12 9 Nordeste 15 Nordeste 0 -- -- 91
2019-11-30 01:00:00 12.8 9 Norte 14 Norte 0 -- -- 90
2019-11-30 00:00:00 12.3 6 Norte 12 Norte 0 -- -- 92
2019-11-29 23:00:00 11.8 4 Norte 6 Norte 0 -- -- 95
2019-11-29 22:00:00 12.3 4 Norte 8 Norte 0 -- -- 93
2019-11-29 21:00:00 12.8 5 Noroeste 8 Noroeste 0 -- -- 93
2019-11-29 20:00:00 13 5 Noroeste 8 Norte 0 -- -- 92
2019-11-29 19:00:00 13.8 2 Noroeste 6 Noroeste 0 -- -- 91
2019-11-29 18:00:00 15.2 4 Noroeste 13 Noroeste 0 -- -- 87
2019-11-29 17:00:00 15.8 7 Oeste 14 Oeste 0 -- -- 84
2019-11-29 16:00:00 15.7 9 Oeste 16 Oeste 0 -- -- 85
2019-11-29 15:00:00 16.1 8 Oeste 15 Oeste 0 -- -- 85
2019-11-29 14:00:00 15.2 12 Oeste 17 Oeste 0 -- -- 87
2019-11-29 13:00:00 15.8 6 Oeste 13 Oeste 0 -- -- 84
2019-11-29 12:00:00 15.8 5 Sudoeste -- -- -- -- -- 83
2019-11-29 11:00:00 -- -- -- -- -- -- -- -- --
2019-11-29 10:00:00 13.3 10 Este 21 Nordeste 0 1018.3 1.4 96
2019-11-29 09:00:00 10.9 12 Nordeste 18 Nordeste 0 1017.8 1.2 99
2019-11-29 08:00:00 10.2 10 Nordeste 17 Nordeste 0 1017.2 0.8 99
2019-11-29 07:00:00 9.8 6 Nordeste 13 Nordeste 0 1016.9 0.5 99
2019-11-29 06:00:00 10 8 Nordeste 12 Nordeste 0 1016.6 0.3 99
2019-11-29 05:00:00 9.3 7 Nordeste 10 Nordeste 0 1016.4 0.3 99
2019-11-29 04:00:00 10.2 6 Nordeste 8 Nordeste 0 1016.4 0.2 99
2019-11-29 03:00:00 11.1 6 Nordeste 10 Nordeste 0 1016.3 -0.2 99
2019-11-29 02:00:00 10.7 5 Norte 8 Norte 0 1016.1 -0.4 99
2019-11-29 01:00:00 10.5 4 Norte 6 Norte 0 1016.2 0 99
2019-11-29 00:00:00 10.8 3 Norte 5 Norte 0 1016.5 0.7 99
2019-11-28 23:00:00 9.9 2 Norte 4 Norte 0 1016.5 1.1 98
2019-11-28 22:00:00 10.7 0 Calma 6 Este 0 1016.2 1.1 98
2019-11-28 21:00:00 11.1 3 Este 6 Este 0 1015.8 1 96
2019-11-28 20:00:00 12.1 0 Calma 4 Sudoeste 0 1015.4 0.7 95
2019-11-28 19:00:00 13.6 0 Calma 4 Sudoeste 0 1015.1 0.8 92
2019-11-28 18:00:00 14.9 0 Calma 8 Sudoeste 0 1014.8 0.2 88
2019-11-28 17:00:00 15.4 5 Sudoeste 9 Sudoeste 0 1014.7 -0.4 90
2019-11-28 16:00:00 15.7 7 Sudoeste 10 Sudoeste 0 1014.3 -1.5 89
2019-11-28 15:00:00 15.7 6 Sudoeste 10 Sudoeste 0 1014.6 -1.5 87
2019-11-28 14:00:00 15.9 5 Sudoeste 9 Sudoeste 0 1015.1 -1.3 86
2019-11-28 13:00:00 15.9 6 Sudoeste 9 Sudoeste 0 1015.8 -0.1 84
2019-11-28 12:00:00 15.7 6 Sur 10 Sur 0 1016.1 0.7 86
2019-11-28 11:00:00 15.4 2 Sudeste 7 Nordeste 0 1016.4 1.6 92
2019-11-28 10:00:00 13 4 Nordeste 10 Este 0 1015.9 1.6 99
2019-11-28 09:00:00 10 6 Este 14 Este 0 1015.4 1.4 99
2019-11-28 08:00:00 10.1 6 Nordeste 11 Este 0 1014.8 0.9 99
2019-11-28 07:00:00 10.1 6 Este 8 Nordeste 0 1014.3 0.5 98
2019-11-28 06:00:00 9.9 5 Nordeste 6 Norte 0 1014 0.4 99
2019-11-28 05:00:00 10.4 3 Norte 5 Norte 0 1013.9 0 98
2019-11-28 04:00:00 11.6 0 Calma 4 Norte 0 1013.8 -0.4 99
2019-11-28 03:00:00 10.4 3 Norte 5 Norte 0 1013.6 -0.5 99
2019-11-28 02:00:00 10.5 0 Calma 5 Este 0 1013.9 -0.2 98
2019-11-28 01:00:00 12 0 Calma 0 Calma 0 1014.2 0.2 99
2019-11-28 00:00:00 13.8 0 Calma 10 Oeste 0 1014.1 0.5 99
2019-11-27 23:00:00 13.8 0 Calma 6 Sudoeste 0 1014.1 1.5 99
2019-11-27 22:00:00 13.2 0 Calma 5 Sudoeste 0 1014 1.9 98
2019-11-27 21:00:00 13.5 0 Calma 4 Sudoeste 0 1013.6 1.9 99
2019-11-27 20:00:00 13.8 2 Sudoeste 5 Sudoeste 0 1012.6 1.2 97
2019-11-27 19:00:00 14.8 3 Sudoeste 8 Oeste 0 1012.1 0.5 96
2019-11-27 18:00:00 15 2 Sudoeste 8 Sur 0 1011.7 0.1 94
2019-11-27 17:00:00 15.4 4 Sur 9 Sudoeste 0 1011.4 -0.5 94
2019-11-27 16:00:00 15.1 4 Sudoeste 9 Oeste 0 1011.6 -0.9 94
2019-11-27 15:00:00 15.2 3 Oeste 9 Oeste 0 1011.6 -1.5 91
2019-11-27 14:00:00 15.9 4 Oeste 11 Oeste 0 1011.9 -1.3 90
2019-11-27 06:00:00 13.8 7 Oeste 14 Oeste 0 1010.4 0 99
2019-11-27 05:00:00 14.4 7 Oeste 19 Oeste 0 1010.5 -0.3 99
2019-11-27 04:00:00 14.5 4 Oeste 12 Oeste 0 1010.5 -0.8 99
2019-11-27 03:00:00 14.3 6 Sudoeste 10 Oeste 0 1010.4 -0.4 98
2019-11-27 02:00:00 14.7 5 Oeste 20 Oeste 0 1010.8 0 96
2019-11-27 01:00:00 15.2 8 Noroeste 24 Oeste 0 1011.3 0.5 95
2019-11-27 00:00:00 15.2 4 Oeste 29 Sudoeste 0 1010.8 0.2 99
2019-11-26 23:00:00 15.4 18 Sudoeste 29 Sudoeste 0 1010.8 0.4 99
2019-11-26 22:00:00 15.4 20 Sudoeste 27 Sudoeste 0 1010.8 0.4 98
2019-11-26 21:00:00 15.4 10 Sur 24 Sudoeste 0 1010.6 0.2 97
2019-11-26 20:00:00 15.4 20 Sudoeste 26 Sudoeste 0 1010.4 0 98
2019-11-26 19:00:00 15.5 15 Sudoeste 23 Sudoeste 0 1010.4 -0.3 98
2019-11-26 18:00:00 15.7 18 Sudoeste 24 Sudoeste 0 1010.4 -0.4 97
2019-11-26 17:00:00 16.4 8 Sudoeste 18 Sudoeste 0 1010.4 -0.8 93
2019-11-26 16:00:00 16.9 13 Sudoeste 19 Sudoeste 0 1010.7 -1.3 94
2019-11-26 15:00:00 16.3 5 Sudoeste 11 Sudoeste 0 1010.8 -1.9 99
2019-11-26 14:00:00 15.8 5 Sur 9 Sur 0 1011.2 -2.1 99
2019-11-26 13:00:00 15.7 4 Sur 10 Sudeste 0 1012 -1.1 99
2019-11-26 12:00:00 15.5 2 Sur 10 Sur 0.1 1012.7 -0.4 99
2019-11-26 11:00:00 15 4 Sudeste 15 Sudeste 0 1013.3 0.7 99
2019-11-26 10:00:00 14.9 3 Sudeste 10 Sudeste 0 1013.1 0.6 99
2019-11-26 09:00:00 14.3 5 Sudeste 12 Sudeste 0 1013.1 0.7 99
2019-11-26 08:00:00 14.4 5 Sudeste 11 Sudeste 0 1012.6 0.2 99
2019-11-26 07:00:00 14.4 3 Sudeste 6 Sur 0 1012.5 -0.6 99
2019-11-26 06:00:00 14.9 0 Calma 4 Noroeste 0 1012.4 -0.8 99
2019-11-26 05:00:00 15.1 0 Calma 3 Oeste 0 1012.4 -1.2 99
2019-11-26 04:00:00 14.4 0 Calma 4 Oeste 0 1013.1 -1.2 99
2019-11-26 03:00:00 14.2 3 Sudoeste 7 Noroeste 0 1013.2 -1.2 99
2019-11-26 02:00:00 14.5 4 Noroeste 7 Noroeste 0 1013.6 -1 99
2019-11-26 01:00:00 14.7 3 Norte 11 Noroeste 0 1014.3 0 99
2019-11-26 00:00:00 14.9 5 Noroeste 14 Noroeste 0 1014.4 0.3 99
2019-11-25 23:00:00 15.1 6 Noroeste 14 Oeste 0 1014.6 0.8 99
2019-11-25 22:00:00 15.4 5 Oeste 13 Oeste 0 1014.3 0.8 98
2019-11-25 21:00:00 15.7 4 Oeste 13 Oeste 0 1014.1 0.8 98
2019-11-25 20:00:00 15.7 4 Oeste 9 Oeste 0 1013.8 0.6 98
2019-11-25 19:00:00 15.7 6 Oeste 18 Oeste 0 1013.5 0.3 99
2019-11-25 18:00:00 15.9 6 Oeste 17 Sudoeste 0 1013.3 0.1 99
2019-11-25 17:00:00 15.7 4 Oeste 24 Sudoeste 0 1013.2 -0.6 99
2019-11-25 16:00:00 15.6 18 Sudoeste 27 Sudoeste 0 1013.2 -1 98
2019-11-25 15:00:00 15.5 12 Sudoeste 19 Sudoeste 0 1013.2 -1.8 99
2019-11-25 14:00:00 15.4 13 Sudoeste 23 Sudoeste 0 1013.8 -1.3 98
2019-11-25 13:00:00 15.3 13 Sudoeste 21 Sudoeste 0 1014.2 -0.2 97
2019-11-25 12:00:00 15.4 13 Sur 20 Sur 0 1015 0.7 96
2019-11-25 11:00:00 15.7 14 Sur 22 Sur -- 1015.1 1 95
2019-11-25 10:00:00 15.5 8 Sudoeste 17 Sudoeste 0 1014.4 0.8 96
2019-11-25 09:00:00 15 7 Sudoeste 20 Sudoeste 0 1014.3 0.9 95
2019-11-25 08:00:00 14.8 13 Sudoeste 19 Sudoeste 0 1014.1 0.6 96
2019-11-25 07:00:00 14.7 5 Sudoeste 10 Oeste 0 1013.6 -0.4 95
2019-11-25 06:00:00 14.4 4 Sudoeste 12 Oeste 0 1013.4 -0.8 96
2019-11-25 05:00:00 14.3 5 Oeste 14 Oeste 0 1013.5 -1 95
2019-11-25 04:00:00 14.3 5 Sudoeste 12 Oeste 0 1014 -0.9 94
2019-11-25 03:00:00 14.3 3 Sudoeste 9 Sudoeste 0 1014.2 -1 94
2019-11-25 02:00:00 14.2 5 Sudoeste 11 Sudoeste 0 1014.5 -0.7 94
2019-11-25 01:00:00 13.8 3 Sudoeste 6 Sudoeste 0 1014.9 -0.3 97
2019-11-25 00:00:00 13.3 0 Calma 6 Sudeste 0 1015.2 0.4 97
2019-11-24 23:00:00 12.4 0 Calma 4 Sur 0 1015.2 0.7 97
2019-11-24 22:00:00 11.8 2 Sudeste 6 Sudeste 0 1015.2 0.7 95
2019-11-24 21:00:00 13.2 4 Sur 9 Sudeste 0 1014.8 0.6 93
2019-11-24 20:00:00 13.7 5 Sur 10 Sur 0 1014.5 0.7 91
2019-11-24 19:00:00 13 3 Sur 8 Sudeste 0 1014.5 0.6 89
2019-11-24 18:00:00 14.5 2 Sudoeste 9 Sudoeste 0 1014.2 0.1 83
2019-11-24 17:00:00 15.3 6 Sudoeste 11 Sudoeste 0 1013.8 -0.8 77
2019-11-24 16:00:00 15.4 8 Sudoeste 13 Sudoeste 0 1013.9 -1 76
2019-11-24 15:00:00 15.4 6 Sudoeste 13 Sudoeste 0 1014.1 -1.8 75
2019-11-24 14:00:00 15.3 6 Sudoeste 12 Oeste 0 1014.6 -1.2 73
2019-11-24 13:00:00 15 5 Sudoeste 15 Oeste 0 1014.9 -0.4 71
2019-11-24 12:00:00 13.5 11 Oeste 15 Oeste 0 1015.9 1.1 74
2019-11-24 11:00:00 13.4 5 Oeste 9 Sudoeste 0 1015.8 1.5 77
2019-11-24 10:00:00 11.4 3 Noroeste 9 Norte 0 1015.3 1.5 86
2019-11-24 09:00:00 7.9 6 Norte 9 Norte 0 1014.8 1.9 96
2019-11-24 08:00:00 7.2 5 Norte 10 Norte 0 1014.3 1.6 95
2019-11-24 07:00:00 8.2 7 Norte 15 Norte 0 1013.8 1 94
2019-11-24 06:00:00 8 9 Norte 16 Norte 0 1012.9 0.3 95
2019-11-24 05:00:00 7.6 6 Norte 11 Norte 0 1012.7 0.4 93
2019-11-24 04:00:00 8.2 6 Noroeste 11 Norte 0 1012.8 0.5 90
2019-11-24 03:00:00 8.9 6 Norte 13 Norte 0 1012.6 0.6 89
2019-11-24 02:00:00 9 6 Norte 13 Noroeste 0 1012.3 -0.1 89
2019-11-24 01:00:00 9.5 8 Noroeste 14 Noroeste 0 1012.3 0.5 87
2019-11-24 00:00:00 9.7 6 Noroeste 12 Noroeste 0 1012 0.6 86
2019-11-23 23:00:00 11 7 Noroeste 14 Noroeste 0 1012.4 1.8 79
2019-11-23 22:00:00 11.3 10 Noroeste 15 Noroeste 0 1011.8 2.2 74
2019-11-23 21:00:00 11.6 6 Noroeste 12 Noroeste 0 1011.4 2.7 72
2019-11-23 20:00:00 11.9 5 Noroeste 10 Norte 0 1010.6 2.7 71
2019-11-23 19:00:00 13.6 4 Oeste 9 Oeste 0 1009.6 2.4 72
2019-11-23 18:00:00 15.3 5 Noroeste 15 Noroeste 0 1008.7 1.8 56
2019-11-23 17:00:00 16.2 6 Noroeste 27 Noroeste 0 1007.9 0.9 54
2019-11-23 16:00:00 16.5 13 Noroeste 27 Noroeste 0 1007.2 -0.1 53
2019-11-23 15:00:00 16.3 12 Noroeste 29 Noroeste 0 1006.9 -0.6 53
2019-11-23 14:00:00 16.2 15 Noroeste 30 Noroeste 0 1007 0.3 56
2019-11-23 13:00:00 16.2 16 Noroeste 31 Noroeste 0 1007.3 1.5 58
2019-11-23 12:00:00 15.2 12 Noroeste 25 Noroeste 0 1007.5 2.8 68
2019-11-23 11:00:00 14.5 10 Oeste 24 Oeste 0 1006.7 3.2 81
2019-11-23 10:00:00 13.6 9 Oeste 24 Noroeste 0 1005.8 3.5 84
2019-11-23 09:00:00 12.8 11 Noroeste 26 Oeste 0 1004.7 2.9 87
2019-11-23 08:00:00 12.2 6 Noroeste 23 Oeste 0 1003.5 2.5 90
2019-11-23 07:00:00 13 13 Oeste 27 Oeste 0 1002.3 1.9 89
2019-11-23 06:00:00 13.1 14 Noroeste 27 Noroeste 0 1001.8 2.2 88
2019-11-23 05:00:00 13.2 13 Noroeste 45 Noroeste 0 1001 1.5 91
2019-11-23 04:00:00 14.4 12 Oeste 27 Oeste 0 1000.4 1 82
2019-11-23 03:00:00 14.4 19 Oeste 32 Sudoeste 0 999.6 0.6 82
2019-11-23 02:00:00 14.6 17 Oeste 29 Oeste 0 999.5 0.8 88
2019-11-23 01:00:00 14.4 17 Oeste 33 Oeste 0 999.4 1.1 85
2019-11-23 00:00:00 14 10 Oeste 40 Oeste 0 999 1.4 93
2019-11-22 23:00:00 14.4 20 Oeste 31 Oeste 0 998.7 1.5 92
2019-11-22 22:00:00 14.2 13 Oeste 24 Oeste 0 998.3 2.1 90
2019-11-22 21:00:00 14.2 14 Oeste 24 Oeste 0 997.6 1.9 93
2019-11-22 20:00:00 14.1 9 Noroeste 28 Oeste 0 997.2 2.7 94
2019-11-22 19:00:00 14.4 9 Noroeste 26 Oeste 0 996.2 1.7 99
2019-11-22 18:00:00 15.4 17 Noroeste 62 Sudoeste 0 995.7 0.7 98
2019-11-22 17:00:00 16.4 37 Sudoeste 58 Sudoeste 0 994.5 -1.1 92
2019-11-22 16:00:00 16.2 39 Sudoeste 54 Sudoeste 0 994.5 -2.6 91
2019-11-22 15:00:00 16.1 31 Sudoeste 49 Sudoeste 0 995 -3.4 94
2019-11-22 14:00:00 16.1 30 Sudoeste 46 Sudoeste 0 995.6 -3.3 97
2019-11-22 13:00:00 15.6 29 Sudoeste 48 Sudoeste 0 997.1 -2.4 99
2019-11-22 12:00:00 15.5 22 Sudoeste 35 Sudoeste 0 998.4 -0.5 98
2019-11-22 11:00:00 15.1 15 Sudoeste 24 Sudoeste 0 998.9 -0.8 99
2019-11-22 10:00:00 15 13 Sudoeste 24 Sudoeste 0 999.5 -1 99
2019-11-22 09:00:00 14.3 6 Sur 15 Sur 0 998.9 -2.3 99
2019-11-22 08:00:00 14.3 5 Sur 14 Sur 0 999.7 -1.5 99
2019-11-22 07:00:00 13.4 0 Calma 8 Este 0 1000.5 -1.7 99
2019-11-22 06:00:00 13.3 3 Este 8 Este 0 1001.2 -1.4 99
2019-11-22 05:00:00 13.6 5 Este 9 Este 0 1001.2 -1.6 99
2019-11-22 04:00:00 13.6 4 Este 7 Este 0 1002.2 -0.9 99
2019-11-22 03:00:00 13.3 0 Calma 4 Este 0 1002.6 -1.2 99
2019-11-22 02:00:00 12.4 0 Calma 5 Este 0 1002.8 -1.1 99
2019-11-22 01:00:00 12.1 2 Sudeste 4 Sudeste 0 1003.1 -1.1 98
2019-11-22 00:00:00 12.5 0 Calma 6 Oeste 0 1003.8 -0.6 97
2019-11-21 23:00:00 13.7 4 Oeste 13 Sudoeste 0 1003.9 -0.7 97
2019-11-21 22:00:00 13.8 3 Oeste 9 Oeste 0 1004.2 0.4 97
2019-11-21 21:00:00 14 4 Sudoeste 9 Sur 0 1004.4 0.8 97
2019-11-21 20:00:00 13.8 0 Calma 4 Sudeste 0 1004.6 1.2 97
2019-11-21 19:00:00 14.2 2 Sur 8 Sur 0 1003.8 0.6 96
2019-11-21 18:00:00 14.6 0 Calma 7 Sudoeste 0 1003.6 0.3 94
2019-11-21 17:00:00 15.3 3 Oeste 14 Sudoeste 0 1003.4 -0.8 92
2019-11-21 16:00:00 16.1 6 Oeste 13 Oeste 0 1003.2 -1.4 88
2019-11-21 15:00:00 16.3 5 Sudoeste 15 Sudoeste 0 1003.3 -1.8 88
2019-11-21 14:00:00 15.1 5 Sudoeste 14 Sudoeste 0 1004.2 -1 95
2019-11-21 13:00:00 14.9 5 Sudoeste 23 Sur 0 1004.6 -0.5 96
2019-11-21 12:00:00 14.7 12 Sur 21 Sur 0 1005.1 -0.1 94
2019-11-21 11:00:00 14.5 15 Sur 21 Sur 0 1005.2 0 97
2019-11-21 10:00:00 14 3 Sudeste 8 Sur 0 1005.1 0 99
2019-11-21 09:00:00 12 4 Este 9 Este 0 1005.2 0.5 99
2019-11-21 08:00:00 -- -- -- -- -- -- -- -- --
2019-11-21 07:00:00 -- -- -- -- -- -- -- -- --
2019-11-21 06:00:00 -- -- -- -- -- -- -- -- --
2019-11-21 05:00:00 -- -- -- -- -- -- -- -- --
2019-11-21 04:00:00 -- -- -- -- -- -- -- -- --
2019-11-21 03:00:00 -- -- -- -- -- -- -- -- --
2019-11-21 02:00:00 -- -- -- -- -- -- -- -- --
2019-11-21 01:00:00 -- -- -- -- -- -- -- -- --
2019-11-21 00:00:00 -- -- -- -- -- -- -- -- --
2019-11-20 23:00:00 -- -- -- -- -- -- -- -- --
2019-11-20 22:00:00 13.4 3 Noroeste 15 Noroeste 0 1006.7 1.4 91
2019-11-20 21:00:00 13.6 6 Noroeste 14 Noroeste 0 1006.4 1.3 92
2019-11-20 20:00:00 12.5 0 Calma 6 Sur 0 1005.9 0.9 96
2019-11-20 19:00:00 13.1 0 Calma 9 Sudoeste 0 1005.3 0.6 93
2019-11-20 18:00:00 13.9 6 Sudoeste 17 Sudoeste 0 1005.1 0.7 88
2019-11-20 17:00:00 14.4 9 Sudoeste 15 Sudoeste 0 1005 0.6 91
2019-11-20 16:00:00 15.5 6 Sudoeste 10 Sudoeste 0 1004.7 -0.7 87
2019-11-20 15:00:00 15.1 4 Noroeste 12 Noroeste 0 1004.4 -2 86
2019-11-20 14:00:00 13.4 5 Norte 18 Este 0 1004.4 -2.6 97
2019-11-20 13:00:00 12.1 9 Sudeste 56 Sudeste 4.3 1005.4 -1.5 99
2019-11-20 12:00:00 10.8 10 Este 21 Sudeste 3.3 1006.4 -0.7 99
2019-11-20 11:00:00 10.2 8 Sudeste 18 Este 1.9 1007 0 98
2019-11-20 10:00:00 8.9 10 Este 18 Este 0.2 1006.9 -1 97
2019-11-20 09:00:00 8.9 7 Este 22 Este 0.4 1007.1 -0.6 98
2019-11-20 08:00:00 7.3 10 Sudeste 18 Sudeste 0.3 1007 -1 97
2019-11-20 07:00:00 7.7 6 Este 16 Este 0.1 1007.9 -0.6 97
2019-11-20 06:00:00 7.2 9 Este 17 Este 0 1007.7 -1.6 98
2019-11-20 05:00:00 7.1 7 Este 15 Este 0 1008 -1.9 95
2019-11-20 04:00:00 6.5 8 Este 15 Este 0 1008.5 -1.7 98
2019-11-20 03:00:00 7.1 6 Este 10 Este 0 1009.3 -1.3 99
2019-11-20 02:00:00 4.9 6 Este 8 Este 0 1009.9 -1.2 97
2019-11-20 01:00:00 4.9 0 Calma 4 Norte 0 1010.2 -0.8 95
2019-11-20 00:00:00 6.2 2 Nordeste 5 Este 0 1010.6 -0.6 95
2019-11-19 23:00:00 7.4 0 Calma 6 Este 0 1011.1 -0.4 94
2019-11-19 22:00:00 7.5 0 Calma 4 Noroeste 0 1011 -0.2 92
2019-11-19 21:00:00 9.2 0 Calma 6 Noroeste 0 1011.2 -0.1 89
2019-11-19 20:00:00 10.6 3 Noroeste 6 Noroeste 0 1011.5 0.4 85
2019-11-19 19:00:00 11.9 3 Noroeste 13 Sudoeste 0 1011.2 -0.3 79
2019-11-19 18:00:00 13.7 4 Sudoeste 9 Sudoeste 0 1011.3 -0.6 74
2019-11-19 17:00:00 14.3 4 Sudoeste 13 Sudoeste 0 1011.1 -1.4 68
2019-11-19 16:00:00 14 7 Sudoeste 12 Sudoeste 0 1011.5 -1.7 73
2019-11-19 15:00:00 13.8 5 Sudoeste 15 Sudoeste 0 1011.9 -2.5 70
2019-11-19 14:00:00 13.7 6 Oeste 13 Sudoeste 0 1012.5 -2.3 69
2019-11-19 13:00:00 13.8 8 Sudoeste 13 Sur 0 1013.2 -1.6 66
2019-11-19 12:00:00 14.3 8 Sur 13 Nordeste 0 1014.4 -0.1 63
2019-11-19 11:00:00 11.1 8 Nordeste 15 Nordeste 0 1014.8 0.6 73
2019-11-19 10:00:00 9.7 9 Nordeste 16 Este 0 1014.8 0.9 77
2019-11-19 09:00:00 7.5 8 Nordeste 14 Nordeste 0 1014.5 0.9 83
2019-11-19 08:00:00 6.5 9 Nordeste 15 Nordeste 0 1014.2 0.7 84
2019-11-19 07:00:00 5.6 7 Nordeste 12 Nordeste 0 1013.9 0.5 88
2019-11-19 06:00:00 5.8 6 Nordeste 11 Nordeste 0 1013.6 0.2 85
2019-11-19 05:00:00 6.6 6 Nordeste 12 Nordeste 0 1013.5 0.1 83
2019-11-19 04:00:00 7.4 6 Nordeste 13 Este 0 1013.4 -0.6 79
2019-11-19 03:00:00 6.8 4 Norte 7 Norte 0 1013.4 -0.8 80
2019-11-19 02:00:00 9.2 6 Norte 14 Norte 0 1013.4 -0.8 71
2019-11-19 01:00:00 9.6 10 Norte 16 Norte 0 1014 -0.3 69
2019-11-19 00:00:00 10.6 9 Nordeste 18 Nordeste 0 1014.2 0.5 66
2019-11-18 23:00:00 10.7 10 Nordeste 18 Nordeste 0 1014.2 0.8 66
2019-11-18 22:00:00 11.3 13 Norte 18 Norte 0 1014.3 1.8 63
2019-11-18 21:00:00 11.3 9 Norte 14 Norte 0 1013.7 1.9 64
2019-11-18 20:00:00 12.1 9 Noroeste 17 Noroeste 0 1013.4 2 61
2019-11-18 19:00:00 13.2 6 Noroeste 12 Noroeste 0 1012.5 1.2 57
2019-11-18 18:00:00 15.6 7 Noroeste 19 Noroeste 0 1011.8 0.5 49
2019-11-18 17:00:00 17.3 11 Noroeste 22 Noroeste 0 1011.4 0 44
2019-11-18 16:00:00 17.6 11 Noroeste 29 Noroeste 0 1011.3 -0.6 42
2019-11-18 15:00:00 17.5 13 Noroeste 26 Noroeste 0 1011.3 -1.3 44
2019-11-18 14:00:00 16.7 13 Noroeste 27 Noroeste 0 1011.4 -1.5 48
2019-11-18 13:00:00 15.8 14 Noroeste 27 Norte 0 1011.9 -0.9 54
2019-11-18 12:00:00 14.1 14 Noroeste 27 Noroeste 0 1012.6 0.2 60
2019-11-18 11:00:00 12.8 14 Noroeste 24 Noroeste 0 1012.9 1.6 69
2019-11-18 10:00:00 11.3 12 Noroeste 22 Noroeste 0 1012.8 1.8 78
2019-11-18 09:00:00 8.6 5 Noroeste 12 Norte 0 1012.4 2.2 88
2019-11-18 08:00:00 8.2 5 Noroeste 17 Norte 0 1011.3 1.7 87
2019-11-18 07:00:00 8.7 11 Noroeste 24 Noroeste 0 1011 1.5 86
2019-11-18 06:00:00 9.3 14 Noroeste 37 Noroeste 0 1010.2 0.7 81
2019-11-18 05:00:00 9.8 14 Noroeste 36 Noroeste 0 1009.6 0.6 77
2019-11-18 04:00:00 11.2 21 Noroeste 36 Noroeste 0 1009.5 0.7 67
2019-11-18 03:00:00 12.5 16 Noroeste 45 Noroeste 0 1009.5 0 72
2019-11-18 02:00:00 14.2 25 Noroeste 51 Oeste 0.2 1009 -1.5 78
2019-11-18 01:00:00 15.3 21 Oeste 42 Oeste 0 1008.8 -2 91
2019-11-18 00:00:00 14.7 20 Sudoeste 31 Sudoeste 0 1009.5 -1.4 93
2019-11-17 23:00:00 14.6 14 Sudoeste 29 Oeste 0 1010.5 -0.7 94
2019-11-17 22:00:00 14.4 14 Oeste 26 Oeste 0 1010.8 -0.7 93
2019-11-17 21:00:00 14.6 17 Oeste 31 Oeste 0 1010.9 -0.6 93
2019-11-17 20:00:00 14.6 18 Oeste 30 Sudoeste 0 1011.2 -0.5 92
2019-11-17 19:00:00 14.7 9 Oeste 32 Oeste 0 1011.5 -0.4 92
2019-11-17 18:00:00 15 10 Sudoeste 33 Sudoeste 0 1011.5 -1.4 90
2019-11-17 17:00:00 15.2 21 Sudoeste 32 Oeste 0 1011.7 -2.2 90
2019-11-17 16:00:00 15.5 22 Sudoeste 31 Sudoeste 0 1011.9 -2.6 90
2019-11-17 15:00:00 16 10 Sudoeste 18 Sudoeste 0 1012.9 -2.6 87
2019-11-17 14:00:00 15.3 6 Oeste 13 Oeste 0 1013.9 -2 91
2019-11-17 13:00:00 14.6 4 Sudoeste 9 Sudoeste 0 1014.5 -1.4 96
2019-11-17 12:00:00 13.9 5 Oeste 15 Sudoeste 0.2 1015.5 -0.1 97
2019-11-17 11:00:00 13.4 9 Sudoeste 19 Sudoeste 0.1 1015.9 0.6 96
2019-11-17 10:00:00 12.4 14 Sudoeste 21 Sudoeste 0.1 1015.9 0.7 92
2019-11-17 09:00:00 11.5 13 Sudoeste 21 Sudoeste 0.3 1015.6 0.6 93
2019-11-17 08:00:00 10.4 11 Sudoeste 21 Sudoeste 0 1015.3 -0.1 90
2019-11-17 07:00:00 8.1 0 Calma 5 Norte 0 1015.2 -0.4 85
2019-11-17 06:00:00 7.7 2 Norte 10 Noroeste 0 1015 -0.7 81
2019-11-17 05:00:00 6.7 5 Norte 11 Norte 0 1015.4 -0.5 83
2019-11-17 04:00:00 7.2 5 Norte 15 Norte 0 1015.6 -0.5 81
2019-11-17 03:00:00 7.1 8 Norte 16 Norte 0 1015.7 -0.4 81
2019-11-17 02:00:00 5.8 5 Noroeste 9 Noroeste 0 1015.9 0.1 77
2019-11-17 01:00:00 6.7 6 Noroeste 14 Norte 0 1016.1 0.4 72
2019-11-17 00:00:00 7.2 7 Noroeste 12 Noroeste 0 1016.1 0.5 69
2019-11-16 23:00:00 8.8 6 Norte 13 Noroeste 0 1015.8 0.7 63
2019-11-16 22:00:00 9.2 6 Norte 13 Norte 0 1015.7 1.1 65
2019-11-16 21:00:00 10.7 9 Noroeste 13 Noroeste 0 1015.6 1.5 67
2019-11-16 20:00:00 12.4 6 Oeste 18 Oeste 0 1015.1 1.3 74
2019-11-16 19:00:00 12.5 8 Oeste 21 Oeste 0 1014.6 1.3 71
2019-11-16 18:00:00 12.9 10 Oeste 22 Oeste 0 1014.1 0.7 66
2019-11-16 17:00:00 14.2 12 Oeste 24 Oeste 0 1013.8 0.5 60
2019-11-16 16:00:00 14.9 12 Oeste 27 Noroeste 0 1013.3 -0.2 49
2019-11-16 15:00:00 14.3 7 Sudoeste 23 Oeste 0 1013.4 -0.6 60
2019-11-16 14:00:00 13.1 15 Oeste 24 Oeste 0 1013.3 -0.3 62
2019-11-16 13:00:00 13.8 9 Sudoeste 19 Oeste 0 1013.5 0.5 51
2019-11-16 12:00:00 12.6 7 Norte 21 Noroeste 0 1014 1.8 50
2019-11-16 11:00:00 10.7 10 Norte 22 Noroeste 0 1013.6 2.4 57
2019-11-16 10:00:00 7.7 13 Norte 26 Norte 0 1013 2.9 70
2019-11-16 09:00:00 4.7 12 Norte 20 Norte 0 1012.2 2.9 86
2019-11-16 08:00:00 3.7 13 Norte 20 Noroeste 0 1011.2 2.2 89
2019-11-16 07:00:00 3.8 10 Norte 23 Norte 0 1010.1 1.6 88
2019-11-16 06:00:00 4.3 11 Norte 21 Norte 0 1009.3 1.1 86
2019-11-16 05:00:00 5.3 13 Norte 26 Norte 0 1009 0.9 83
2019-11-16 04:00:00 5.5 13 Norte 23 Norte 0 1008.5 0.7 81
2019-11-16 03:00:00 6.2 14 Norte 26 Noroeste 0 1008.2 0.6 77
2019-11-16 02:00:00 7 15 Noroeste 24 Noroeste 0 1008.1 0.6 73
2019-11-16 01:00:00 7.3 12 Noroeste 23 Noroeste 0 1007.8 0.8 69
2019-11-16 00:00:00 7.9 8 Noroeste 19 Noroeste 0 1007.6 1.2 64
2019-11-15 23:00:00 8.7 11 Noroeste 20 Noroeste 0 1007.5 1.5 59
2019-11-15 22:00:00 8.3 9 Noroeste 14 Noroeste 0 1007 1.4 62
2019-11-15 21:00:00 8.8 8 Noroeste 14 Noroeste 0 1006.4 1.5 59
2019-11-15 20:00:00 9.5 9 Noroeste 16 Noroeste 0 1006 1.5 53
2019-11-15 19:00:00 11.5 10 Noroeste 23 Noroeste 0 1005.6 1.5 46
2019-11-15 18:00:00 13.2 14 Noroeste 35 Noroeste 0 1004.9 0.7 41
2019-11-15 17:00:00 14.5 17 Noroeste 35 Noroeste 0 1004.5 -0.3 37
2019-11-15 16:00:00 15.2 18 Noroeste 37 Noroeste 0 1004.1 -1.5 35
2019-11-15 15:00:00 15.4 15 Noroeste 35 Noroeste 0 1004.2 -2.4 40
2019-11-15 14:00:00 14.3 18 Noroeste 39 Noroeste 0 1004.8 -2.2 42
2019-11-15 13:00:00 13.9 21 Noroeste 41 Norte 0 1005.6 -1.5 43
2019-11-15 12:00:00 13.6 18 Noroeste 36 Noroeste 0 1006.6 0.6 46
2019-11-15 11:00:00 11.7 19 Noroeste 36 Noroeste 0 1007 1.2 56
2019-11-15 10:00:00 10.3 16 Noroeste 30 Noroeste 0 1007.1 1.5 65
2019-11-15 09:00:00 8.9 16 Noroeste 26 Noroeste 0 1006 0.2 73
2019-11-15 08:00:00 8.2 13 Noroeste 27 Noroeste 0 1005.8 -0.2 76
2019-11-15 07:00:00 8.5 13 Noroeste 26 Noroeste 0 1005.6 -0.4 74
2019-11-15 06:00:00 9.2 15 Noroeste 36 Noroeste 0 1005.8 -0.9 72
2019-11-15 05:00:00 9.5 16 Noroeste 31 Noroeste 0 1006 -0.9 72
2019-11-15 04:00:00 9.5 16 Noroeste 31 Oeste 0 1006 -0.9 73
2019-11-15 03:00:00 9.7 15 Noroeste 32 Noroeste 0 1006.7 -0.6 75
2019-11-15 02:00:00 9.9 13 Noroeste 26 Noroeste 0 1006.9 -0.6 75
2019-11-15 01:00:00 10.6 13 Noroeste 31 Noroeste 0 1006.9 -0.2 74
2019-11-15 00:00:00 11.3 15 Noroeste 29 Noroeste 0 1007.3 0.3 71
2019-11-14 23:00:00 11.1 13 Noroeste 27 Noroeste 0 1007.5 0.4 72
2019-11-14 22:00:00 11.7 16 Noroeste 31 Noroeste 0 1007.1 0.2 72
2019-11-14 21:00:00 12.5 15 Noroeste 32 Oeste 0 1007 0.6 68
2019-11-14 20:00:00 13.1 15 Noroeste 59 Noroeste 0 1007.1 1.2 70
2019-11-14 19:00:00 12.3 13 Noroeste 31 Noroeste 0 1006.9 1 65
2019-11-14 18:00:00 13.4 15 Noroeste 31 Noroeste 0 1006.4 0.5 72
2019-11-14 17:00:00 13.8 15 Noroeste 42 Noroeste 0 1005.9 -0.8 68
2019-11-14 16:00:00 15.3 24 Noroeste 43 Noroeste 0 1005.9 -1.5 53
2019-11-14 15:00:00 15.4 20 Noroeste 38 Noroeste 0 1005.9 -1.7 54
2019-11-14 14:00:00 14.3 17 Noroeste 40 Noroeste 0.1 1006.7 -1.3 68
2019-11-14 13:00:00 14.4 21 Noroeste 46 Noroeste 0 1007.4 -0.9 72
2019-11-14 12:00:00 15.9 15 Noroeste 37 Oeste 0 1007.6 -0.7 70
2019-11-14 11:00:00 14.6 20 Oeste 43 Oeste 0 1008 -0.3 84
2019-11-14 10:00:00 14.9 22 Oeste 38 Oeste 0 1008.3 -0.7 82
2019-11-14 09:00:00 14.5 12 Oeste 30 Oeste 0 1008.3 -0.9 84
2019-11-14 08:00:00 14.2 14 Oeste 29 Oeste 0 1008.3 -1.3 81
2019-11-14 07:00:00 14.3 14 Oeste 30 Oeste 0 1009 -1 80
2019-11-14 06:00:00 13.7 10 Oeste 20 Oeste 0 1009.2 -1.5 80
2019-11-14 05:00:00 12.7 5 Oeste 19 Noroeste 0 1009.6 -1.7 84
2019-11-14 04:00:00 11.3 10 Noroeste 18 Noroeste 0 1010 -1.8 87
2019-11-14 03:00:00 12.1 8 Noroeste 23 Noroeste 0 1010.7 -1.1 85
2019-11-14 02:00:00 12.6 10 Noroeste 22 Noroeste 0 1011.3 -0.5 87
2019-11-14 01:00:00 13.6 11 Noroeste 24 Noroeste 0 1011.8 -0.6 88
2019-11-14 00:00:00 13.8 11 Noroeste 18 Noroeste 0 1011.8 0.3 90
2019-11-13 23:00:00 14.6 10 Noroeste 21 Noroeste 0 1011.8 0.6 87
2019-11-13 22:00:00 13.5 9 Noroeste 16 Noroeste 0 1012.4 0.9 91
2019-11-13 21:00:00 14.1 4 Oeste 8 Oeste 0 1011.5 0.3 94
2019-11-13 20:00:00 15.3 4 Sudoeste 11 Oeste 0 1011.2 0.4 90
2019-11-13 19:00:00 15.5 6 Oeste 17 Noroeste 0 1011.5 0.9 88
2019-11-13 18:00:00 16.1 8 Oeste 18 Oeste 0 1011.2 0.6 90
2019-11-13 17:00:00 17.6 6 Sudoeste 25 Sudoeste 0 1010.8 -0.4 85
2019-11-13 16:00:00 17.3 11 Sudoeste 22 Sudoeste 0 1010.6 -1.1 85
2019-11-13 15:00:00 17.8 10 Oeste 23 Sudoeste 0 1010.6 -1.4 84
2019-11-13 14:00:00 17.1 7 Oeste 23 Oeste 0 1011.2 -0.9 85
2019-11-13 13:00:00 16.8 12 Oeste 27 Oeste 0 1011.7 -0.1 85
2019-11-13 12:00:00 16.2 14 Oeste 25 Sudoeste 0 1012 0.7 85
2019-11-13 11:00:00 15.9 12 Oeste 24 Oeste 0 1012.1 0.9 88
2019-11-13 10:00:00 15.8 5 Sudoeste 22 Sudoeste 0 1011.8 1.2 93
2019-11-13 09:00:00 15.1 14 Sudoeste 22 Sudoeste 0 1011.3 0.6 94
2019-11-13 08:00:00 15 13 Sudoeste 21 Sudoeste 0 1011.2 0.1 92
2019-11-13 07:00:00 14.9 11 Sudoeste 24 Oeste 0 1010.6 -0.5 92
2019-11-13 06:00:00 14.5 15 Oeste 24 Oeste 0 1010.7 -1 92
2019-11-13 05:00:00 14.6 12 Oeste 32 Oeste 0 1011.1 -1.4 92
2019-11-13 04:00:00 14.7 13 Oeste 23 Oeste 0 1011.1 -1.4 90
2019-11-13 03:00:00 14.4 14 Oeste 25 Oeste 0 1011.7 -1.4 89
2019-11-13 02:00:00 14.5 9 Oeste 19 Noroeste 0 1012.5 -0.7 86
2019-11-13 01:00:00 14.4 8 Oeste 17 Noroeste 0 1012.5 -0.5 84
2019-11-13 00:00:00 12.9 7 Noroeste 17 Noroeste 0 1013.1 0.4 85
2019-11-12 23:00:00 11.7 0 Calma 9 Noroeste 0 1013.2 0.4 81
2019-11-12 22:00:00 13.4 6 Noroeste 15 Noroeste 0 1013 0.8 75
2019-11-12 21:00:00 14.3 6 Noroeste 19 Noroeste 0 1012.7 1 69
2019-11-12 20:00:00 15.4 10 Noroeste 18 Noroeste 0 1012.8 1.3 62
2019-11-12 19:00:00 16.1 8 Noroeste 17 Noroeste 0 1012.2 0.5 52
2019-11-12 18:00:00 18.2 12 Noroeste 25 Noroeste 0 1011.7 -0.4 43
2019-11-12 17:00:00 19.6 17 Noroeste 32 Norte 0 1011.5 -1.6 38
2019-11-12 16:00:00 19.9 19 Noroeste 35 Noroeste 0 1011.7 -1.9 37
2019-11-12 15:00:00 19.7 17 Noroeste 32 Noroeste 0 1012.1 -2.1 40
2019-11-12 14:00:00 16.2 6 Sudoeste 26 Oeste 0 1013.1 -1 68
2019-11-12 13:00:00 14.8 16 Oeste 29 Oeste 0 1013.6 -0.2 71
2019-11-12 12:00:00 14.5 14 Oeste 29 Oeste 0 1014.2 1.2 75
2019-11-12 11:00:00 14.3 9 Noroeste 23 Noroeste 0 1014.1 1.3 74
2019-11-12 10:00:00 12.5 14 Noroeste 24 Noroeste 0 1013.8 1.4 82
2019-11-12 09:00:00 9.6 12 Noroeste 21 Norte 0 1013 0.5 93
2019-11-12 08:00:00 9.2 8 Noroeste 20 Noroeste 0 1012.8 0.8 95
2019-11-12 07:00:00 9.7 14 Noroeste 28 Norte 0 1012.4 -0.1 92
2019-11-12 06:00:00 9.9 14 Norte 27 Noroeste 0 1012.5 -0.3 92
2019-11-12 05:00:00 10.6 13 Noroeste 22 Norte 0 1012 -0.7 91
2019-11-12 04:00:00 10.9 12 Norte 22 Noroeste 0 1012.5 -0.5 88
2019-11-12 03:00:00 11.8 11 Norte 26 Noroeste 0 1012.8 0 85
2019-11-12 02:00:00 12 12 Norte 27 Norte 0 1012.7 -0.6 84
2019-11-12 01:00:00 12.7 11 Noroeste 20 Noroeste 0 1013 -0.4 82
2019-11-12 00:00:00 13.3 5 Noroeste 19 Noroeste 0 1012.8 0.4 80
2019-11-11 23:00:00 14.5 10 Noroeste 24 Noroeste 0 1013.3 0.8 78
2019-11-11 22:00:00 15.6 13 Noroeste 23 Noroeste 0 1013.4 1.2 79
2019-11-11 21:00:00 15.2 6 Noroeste 12 Noroeste 0 1012.4 0.3 88
2019-11-11 20:00:00 15.5 5 Noroeste 10 Oeste 0 1012.5 0.7 91
2019-11-11 19:00:00 16.1 0 Calma 16 Oeste 0 1012.2 -0.2 89
2019-11-11 18:00:00 18.1 6 Noroeste 25 Noroeste 0 1012.1 -0.8 80
2019-11-11 17:00:00 19.2 12 Noroeste 27 Noroeste 0 1011.8 -2.1 76
2019-11-11 16:00:00 16.2 8 Oeste 15 Oeste 0 1012.4 -2.1 87
2019-11-11 15:00:00 16.3 5 Sudoeste 12 Oeste 0 1012.9 -2 90
2019-11-11 14:00:00 16.1 6 Oeste 14 Oeste 0 1013.9 -1.7 91
2019-11-11 13:00:00 16.2 6 Oeste 15 Oeste 0 1014.5 -1.1 92
2019-11-11 12:00:00 16.1 5 Oeste 12 Oeste 0 1014.9 -1 95
2019-11-11 11:00:00 15.1 5 Oeste 13 Oeste 0 1015.6 0.2 96
2019-11-11 10:00:00 14.5 4 Noroeste 8 Oeste 0 1015.6 -0.2 98
2019-11-11 09:00:00 13.7 0 Calma 4 Sudoeste 0 1015.9 0.4 98
2019-11-11 08:00:00 13.4 3 Sudoeste 5 Sudoeste 0.5 1015.4 -0.5 98
2019-11-11 07:00:00 13.4 0 Calma 7 Sudeste 0.4 1015.8 -0.3 97
2019-11-11 06:00:00 13.2 2 Sur 5 Sudoeste 0 1015.5 -1.8 97
2019-11-11 05:00:00 12.6 0 Calma 7 Oeste 0.4 1015.9 -1.5 97
2019-11-11 04:00:00 13.1 3 Oeste 10 Noroeste 0.4 1016.1 -1.9 97
2019-11-11 03:00:00 12.7 5 Noroeste 19 Noroeste 0.1 1017.3 -0.9 95
2019-11-11 02:00:00 13.5 10 Noroeste 19 Noroeste 0 1017.4 -1 87
2019-11-11 01:00:00 13.9 10 Noroeste 32 Noroeste 0 1018 0.6 77
2019-11-11 00:00:00 13.9 13 Noroeste 29 Noroeste 0 1018.2 0.3 74